createdAt,value
2018-09-03T00:01:48.851Z,7.00
2018-09-03T00:04:17.368Z,6.07
2018-09-03T00:06:45.863Z,5.90
2018-09-03T00:09:14.587Z,7.00
2018-09-03T00:11:43.563Z,6.90
2018-09-03T00:14:12.113Z,5.53
2018-09-03T00:16:40.611Z,6.87
2018-09-03T00:19:09.176Z,5.13
2018-09-03T00:21:37.699Z,5.77
2018-09-03T00:24:06.345Z,7.53
2018-09-03T00:26:34.909Z,4.73
2018-09-03T00:29:03.603Z,5.80
2018-09-03T00:31:38.119Z,7.93
2018-09-03T00:34:12.032Z,4.97
2018-09-03T00:36:45.985Z,6.00
2018-09-03T00:39:19.780Z,5.60
2018-09-03T00:41:53.599Z,6.03
2018-09-03T00:44:27.341Z,5.93
2018-09-03T00:46:57.423Z,4.30
2018-09-03T00:49:26.033Z,5.13
2018-09-03T00:51:54.667Z,5.10
2018-09-03T00:54:23.575Z,4.67
2018-09-03T00:56:52.927Z,6.47
2018-09-03T00:59:21.389Z,5.63
2018-09-03T01:01:50.540Z,5.90
2018-09-03T01:04:19.546Z,4.60
2018-09-03T01:06:48.059Z,5.77
2018-09-03T01:09:16.599Z,4.53
2018-09-03T01:11:45.177Z,4.87
2018-09-03T01:14:13.752Z,5.73
2018-09-03T01:16:42.227Z,5.17
2018-09-03T01:19:10.729Z,4.63
2018-09-03T01:21:39.233Z,5.87
2018-09-03T01:24:07.944Z,4.63
2018-09-03T01:26:36.494Z,4.87
2018-09-03T01:29:05.137Z,4.17
2018-09-03T01:31:33.664Z,4.93
2018-09-03T01:34:02.260Z,5.00
2018-09-03T01:36:31.024Z,4.70
2018-09-03T01:38:59.534Z,5.17
2018-09-03T01:41:28.120Z,4.90
2018-09-03T01:43:56.593Z,4.90
2018-09-03T01:46:25.076Z,4.63
2018-09-03T01:48:54.100Z,4.50
2018-09-03T01:51:22.860Z,4.83
2018-09-03T01:53:51.368Z,4.13
2018-09-03T01:56:19.925Z,4.43
2018-09-03T01:58:48.570Z,4.63
2018-09-03T02:01:17.227Z,5.40
2018-09-03T02:03:45.735Z,4.87
2018-09-03T02:06:14.606Z,5.63
2018-09-03T02:08:43.273Z,5.53
2018-09-03T02:11:12.128Z,5.70
2018-09-03T02:13:40.730Z,5.00
2018-09-03T02:16:09.355Z,5.10
2018-09-03T02:18:38.017Z,5.53
2018-09-03T02:21:07.137Z,5.70
2018-09-03T02:23:35.676Z,6.23
2018-09-03T02:26:04.366Z,4.80
2018-09-03T02:28:32.963Z,5.33
2018-09-03T02:31:01.465Z,6.27
2018-09-03T02:33:30.417Z,5.27
2018-09-03T02:35:59.002Z,5.23
2018-09-03T02:38:27.744Z,5.07
2018-09-03T02:40:56.493Z,4.83
2018-09-03T02:43:25.169Z,6.77
2018-09-03T02:45:53.898Z,6.77
2018-09-03T02:48:22.529Z,6.30
2018-09-03T02:50:51.066Z,7.13
2018-09-03T02:53:19.926Z,6.67
2018-09-03T02:55:48.456Z,7.47
2018-09-03T02:58:17.239Z,7.30
2018-09-03T03:00:45.757Z,7.73
2018-09-03T03:03:14.394Z,6.30
2018-09-03T03:05:43.032Z,7.57
2018-09-03T03:08:11.528Z,7.97
2018-09-03T03:10:40.142Z,7.30
2018-09-03T03:13:08.690Z,9.07
2018-09-03T03:15:37.402Z,9.77
2018-09-03T03:18:06.275Z,9.00
2018-09-03T03:20:34.892Z,9.73
2018-09-03T03:23:03.384Z,9.70
2018-09-03T03:25:32.070Z,9.77
2018-09-03T03:28:00.572Z,9.70
2018-09-03T03:30:29.138Z,9.00
2018-09-03T03:32:57.654Z,10.13
2018-09-03T03:35:26.184Z,10.70
2018-09-03T03:37:54.681Z,11.40
2018-09-03T03:40:23.216Z,9.33
2018-09-03T03:42:52.453Z,10.27
2018-09-03T03:45:21.136Z,10.67
2018-09-03T03:47:50.151Z,11.83
2018-09-03T03:50:18.820Z,11.23
2018-09-03T03:52:48.412Z,11.13
2018-09-03T03:55:17.032Z,11.10
2018-09-03T03:57:45.579Z,11.53
2018-09-03T04:00:14.353Z,11.00
2018-09-03T04:02:43.177Z,12.93
2018-09-03T04:05:11.888Z,11.13
2018-09-03T04:07:40.424Z,10.17
2018-09-03T04:10:09.229Z,10.37
2018-09-03T04:12:37.857Z,12.93
2018-09-03T04:15:06.760Z,12.23
2018-09-03T04:17:35.556Z,11.43
2018-09-03T04:20:04.867Z,12.27
2018-09-03T04:22:34.195Z,11.30
2018-09-03T04:25:03.500Z,12.43
2018-09-03T04:27:32.213Z,11.73
2018-09-03T04:30:00.839Z,12.87
2018-09-03T04:32:29.565Z,14.20
2018-09-03T04:34:58.135Z,11.73
2018-09-03T04:37:26.882Z,10.93
2018-09-03T04:39:55.950Z,12.13
2018-09-03T04:42:24.501Z,12.63
2018-09-03T04:44:53.039Z,12.67
2018-09-03T04:47:21.552Z,11.87
2018-09-03T04:49:50.159Z,11.10
2018-09-03T04:52:18.793Z,12.83
2018-09-03T04:54:47.562Z,12.83
2018-09-03T04:57:16.510Z,13.40
2018-09-03T04:59:45.379Z,11.97
2018-09-03T05:02:14.032Z,11.83
2018-09-03T05:04:42.611Z,11.80
2018-09-03T05:07:11.233Z,12.20
2018-09-03T05:09:40.089Z,11.87
2018-09-03T05:12:09.115Z,13.33
2018-09-03T05:14:38.121Z,11.57
2018-09-03T05:17:06.925Z,14.10
2018-09-03T05:19:35.421Z,13.07
2018-09-03T05:22:04.059Z,12.13
2018-09-03T05:24:32.617Z,12.70
2018-09-03T05:27:01.184Z,11.57
2018-09-03T05:29:29.829Z,11.67
2018-09-03T05:31:58.359Z,13.00
2018-09-03T05:34:26.996Z,12.57
2018-09-03T05:36:55.922Z,11.87
2018-09-03T05:39:24.660Z,12.37
2018-09-03T05:41:53.174Z,12.87
2018-09-03T05:44:21.705Z,11.97
2018-09-03T05:46:50.252Z,12.00
2018-09-03T05:49:19.170Z,10.53
2018-09-03T05:51:48.192Z,12.67
2018-09-03T05:54:16.744Z,12.90
2018-09-03T05:56:45.434Z,11.60
2018-09-03T05:59:14.193Z,13.20
2018-09-03T06:01:43.382Z,12.87
2018-09-03T06:04:12.168Z,10.97
2018-09-03T06:06:40.693Z,11.50
2018-09-03T06:09:11.550Z,13.10
2018-09-03T06:11:40.882Z,12.93
2018-09-03T06:14:09.597Z,11.87
2018-09-03T06:16:38.260Z,12.33
2018-09-03T06:19:06.797Z,11.60
2018-09-03T06:21:35.326Z,12.07
2018-09-03T06:24:03.895Z,12.67
2018-09-03T06:26:32.726Z,12.83
2018-09-03T06:29:01.697Z,12.30
2018-09-03T06:31:30.454Z,12.23
2018-09-03T06:33:59.348Z,12.93
2018-09-03T06:36:28.022Z,11.73
2018-09-03T06:38:57.092Z,11.13
2018-09-03T06:41:25.654Z,12.03
2018-09-03T06:43:54.459Z,9.77
2018-09-03T06:46:22.947Z,9.30
2018-09-03T06:48:51.463Z,10.90
2018-09-03T06:51:19.957Z,12.60
2018-09-03T06:53:48.615Z,11.20
2018-09-03T06:56:17.273Z,12.20
2018-09-03T06:58:45.841Z,12.50
2018-09-03T07:01:14.493Z,13.90
2018-09-03T07:03:43.729Z,13.10
2018-09-03T07:06:12.416Z,11.13
2018-09-03T07:08:41.170Z,11.47
2018-09-03T07:11:10.624Z,12.50
2018-09-03T07:13:39.186Z,14.73
2018-09-03T07:16:07.712Z,12.93
2018-09-03T07:18:36.235Z,12.60
2018-09-03T07:21:04.874Z,12.13
2018-09-03T07:23:33.468Z,12.23
2018-09-03T07:26:02.000Z,12.67
2018-09-03T07:28:31.082Z,12.63
2018-09-03T07:30:59.609Z,11.97
2018-09-03T07:33:28.226Z,12.97
2018-09-03T07:35:57.187Z,13.37
2018-09-03T07:38:26.757Z,12.03
2018-09-03T07:40:55.290Z,12.27
2018-09-03T07:43:24.192Z,12.93
2018-09-03T07:45:52.766Z,14.57
2018-09-03T07:48:21.344Z,12.80
2018-09-03T07:50:50.051Z,10.57
2018-09-03T07:53:18.572Z,12.17
2018-09-03T07:55:47.208Z,12.10
2018-09-03T07:58:16.232Z,12.47
2018-09-03T08:00:45.113Z,11.23
2018-09-03T08:03:13.676Z,11.63
2018-09-03T08:05:42.181Z,10.23
2018-09-03T08:08:11.829Z,9.40
2018-09-03T08:10:40.430Z,9.80
2018-09-03T08:13:09.090Z,9.63
2018-09-03T08:15:37.591Z,10.07
2018-09-03T08:18:06.198Z,9.07
2018-09-03T08:20:34.770Z,9.93
2018-09-03T08:23:03.334Z,8.10
2018-09-03T08:25:31.841Z,8.93
2018-09-03T08:28:00.407Z,8.20
2018-09-03T08:30:29.033Z,8.97
2018-09-03T08:32:57.778Z,8.03
2018-09-03T08:35:26.826Z,5.93
2018-09-03T08:37:55.573Z,9.13
2018-09-03T08:40:24.069Z,7.50
2018-09-03T08:42:52.644Z,7.10
2018-09-03T08:45:22.792Z,7.17
2018-09-03T08:47:51.402Z,8.10
2018-09-03T08:50:19.926Z,6.83
2018-09-03T08:52:48.426Z,6.83
2018-09-03T08:55:16.888Z,6.50
2018-09-03T08:57:45.777Z,6.63
2018-09-03T09:00:14.672Z,7.53
2018-09-03T09:02:43.393Z,6.57
2018-09-03T09:05:12.253Z,9.07
2018-09-03T09:07:40.952Z,5.20
2018-09-03T09:10:09.492Z,6.63
2018-09-03T09:12:39.092Z,4.90
2018-09-03T09:15:07.661Z,5.40
2018-09-03T09:17:36.232Z,6.67
2018-09-03T09:20:04.920Z,5.90
2018-09-03T09:22:33.537Z,5.37
2018-09-03T09:25:02.315Z,4.97
2018-09-03T09:27:30.826Z,5.17
2018-09-03T09:30:00.227Z,5.50
2018-09-03T09:32:28.754Z,6.93
2018-09-03T09:34:57.421Z,5.50
2018-09-03T09:37:26.483Z,5.97
2018-09-03T09:39:56.412Z,5.73
2018-09-03T09:42:25.480Z,6.67
2018-09-03T09:44:54.035Z,7.40
2018-09-03T09:47:22.557Z,5.93
2018-09-03T09:49:51.799Z,5.47
2018-09-03T09:52:20.332Z,4.80
2018-09-03T09:54:48.817Z,5.60
2018-09-03T09:57:17.949Z,4.47
2018-09-03T09:59:46.427Z,5.27
2018-09-03T10:02:15.039Z,4.63
2018-09-03T10:04:43.855Z,4.67
2018-09-03T10:07:12.745Z,5.70
2018-09-03T10:09:41.267Z,5.40
2018-09-03T10:12:10.013Z,4.80
2018-09-03T10:14:38.826Z,4.23
2018-09-03T10:17:07.764Z,4.43
2018-09-03T10:19:36.948Z,4.07
2018-09-03T10:22:05.501Z,4.97
2018-09-03T10:24:34.249Z,5.27
2018-09-03T10:27:02.785Z,3.20
2018-09-03T10:29:31.578Z,4.43
2018-09-03T10:32:00.216Z,4.30
2018-09-03T10:34:28.754Z,4.27
2018-09-03T10:36:57.283Z,5.37
2018-09-03T10:39:25.861Z,4.33
2018-09-03T10:41:55.328Z,4.10
2018-09-03T10:44:23.896Z,5.20
2018-09-03T10:46:52.879Z,5.30
2018-09-03T10:49:21.420Z,5.57
2018-09-03T10:51:50.186Z,5.40
2018-09-03T10:54:18.884Z,6.70
2018-09-03T10:56:47.420Z,5.77
2018-09-03T10:59:16.148Z,6.33
2018-09-03T11:01:44.645Z,5.87
2018-09-03T11:04:13.210Z,4.67
2018-09-03T11:06:41.978Z,5.20
2018-09-03T11:09:11.456Z,6.03
2018-09-03T11:11:41.042Z,4.00
2018-09-03T11:14:10.041Z,6.60
2018-09-03T11:16:38.743Z,4.23
2018-09-03T11:19:08.063Z,6.90
2018-09-03T11:21:36.761Z,5.50
2018-09-03T11:24:05.455Z,6.40
2018-09-03T11:26:34.104Z,3.33
2018-09-03T11:29:02.782Z,5.67
2018-09-03T11:31:31.699Z,6.43
2018-09-03T11:34:00.615Z,4.80
2018-09-03T11:36:29.588Z,4.07
2018-09-03T11:38:58.939Z,5.37
2018-09-03T11:41:27.503Z,6.67
2018-09-03T11:43:56.103Z,6.23
2018-09-03T11:46:25.476Z,5.77
2018-09-03T11:48:54.005Z,5.20
2018-09-03T11:51:23.455Z,6.80
2018-09-03T11:53:52.165Z,5.87
2018-09-03T11:56:21.813Z,6.23
2018-09-03T11:58:50.309Z,6.60
2018-09-03T12:01:18.935Z,4.23
2018-09-03T12:03:47.430Z,4.33
2018-09-03T12:06:15.981Z,5.33
2018-09-03T12:08:44.834Z,6.27
2018-09-03T12:11:13.549Z,5.83
2018-09-03T12:13:42.381Z,4.67
2018-09-03T12:16:12.907Z,5.97
2018-09-03T12:18:42.796Z,3.87
2018-09-03T12:21:13.092Z,6.47
2018-09-03T12:23:42.224Z,5.63
2018-09-03T12:26:10.922Z,5.30
2018-09-03T12:28:39.481Z,6.53
2018-09-03T12:31:08.401Z,6.43
2018-09-03T12:33:36.911Z,5.33
2018-09-03T12:36:06.202Z,4.87
2018-09-03T12:38:35.512Z,7.57
2018-09-03T12:41:05.256Z,7.03
2018-09-03T12:43:34.581Z,6.77
2018-09-03T12:46:07.282Z,8.33
2018-09-03T12:48:37.389Z,4.67
2018-09-03T12:51:06.404Z,8.20
2018-09-03T12:53:35.056Z,9.93
2018-09-03T12:56:04.128Z,6.33
2018-09-03T12:58:32.989Z,7.03
2018-09-03T13:01:01.603Z,7.30
2018-09-03T13:03:30.114Z,6.93
2018-09-03T13:05:58.605Z,5.50
2018-09-03T13:08:27.106Z,5.90
2018-09-03T13:10:55.687Z,4.83
2018-09-03T13:13:24.340Z,4.90
2018-09-03T13:15:53.044Z,6.90
2018-09-03T13:18:21.874Z,6.00
2018-09-03T13:20:50.759Z,6.53
2018-09-03T13:23:19.409Z,6.70
2018-09-03T13:25:47.905Z,6.20
2018-09-03T13:28:16.746Z,6.00
2018-09-03T13:30:45.402Z,7.63
2018-09-03T13:33:13.885Z,4.30
2018-09-03T13:35:43.139Z,7.43
2018-09-03T13:38:11.869Z,6.93
2018-09-03T13:40:40.537Z,4.10
2018-09-03T13:43:09.583Z,7.10
2018-09-03T13:45:38.087Z,5.83
2018-09-03T13:48:06.613Z,6.07
2018-09-03T13:50:35.544Z,4.90
2018-09-03T13:53:04.399Z,7.43
2018-09-03T13:55:33.401Z,5.80
2018-09-03T13:58:01.942Z,5.27
2018-09-03T14:00:34.170Z,5.63
2018-09-03T14:03:02.711Z,5.60
2018-09-03T14:05:33.499Z,5.47
2018-09-03T14:08:02.714Z,5.87
2018-09-03T14:10:33.276Z,5.97
2018-09-03T14:13:02.009Z,5.53
2018-09-03T14:15:30.658Z,6.57
2018-09-03T14:17:59.164Z,4.87
2018-09-03T14:20:28.005Z,6.10
2018-09-03T14:22:56.520Z,4.83
2018-09-03T14:25:25.032Z,4.03
2018-09-03T14:27:53.499Z,5.90
2018-09-03T14:30:22.129Z,6.13
2018-09-03T14:32:51.140Z,6.03
2018-09-03T14:35:19.722Z,5.57
2018-09-03T14:37:48.384Z,5.57
2018-09-03T14:40:17.000Z,4.20
2018-09-03T14:42:46.240Z,5.97
2018-09-03T14:45:15.386Z,5.73
2018-09-03T14:47:43.846Z,6.23
2018-09-03T14:50:12.382Z,5.83
2018-09-03T14:52:41.324Z,6.50
2018-09-03T14:55:09.808Z,6.57
2018-09-03T14:57:38.328Z,4.50
2018-09-03T15:00:08.498Z,6.40
2018-09-03T15:02:37.098Z,5.90
2018-09-03T15:05:05.812Z,7.27
2018-09-03T15:07:35.404Z,5.60
2018-09-03T15:10:04.532Z,5.87
2018-09-03T15:12:33.402Z,8.03
2018-09-03T15:15:02.165Z,5.73
2018-09-03T15:17:30.684Z,7.50
2018-09-03T15:19:59.482Z,6.10
2018-09-03T15:22:28.534Z,7.50
2018-09-03T15:24:57.196Z,8.67
2018-09-03T15:27:26.270Z,5.50
2018-09-03T15:29:55.086Z,7.50
2018-09-03T15:32:25.407Z,7.00
2018-09-03T15:34:54.331Z,6.67
2018-09-03T15:37:23.132Z,7.57
2018-09-03T15:39:52.529Z,7.57
2018-09-03T15:42:21.332Z,8.93
2018-09-03T15:44:50.287Z,9.60
2018-09-03T15:47:20.850Z,8.57
2018-09-03T15:49:50.455Z,6.00
2018-09-03T15:52:19.727Z,9.07
2018-09-03T15:54:49.760Z,6.27
2018-09-03T15:57:20.759Z,8.60
2018-09-03T15:59:49.491Z,7.63
2018-09-03T16:02:19.728Z,10.57
2018-09-03T16:04:49.457Z,7.00
2018-09-03T16:07:18.078Z,7.50
2018-09-03T16:09:49.343Z,8.73
2018-09-03T16:12:20.811Z,7.73
2018-09-03T16:14:53.129Z,6.83
2018-09-03T16:17:24.472Z,10.27
2018-09-03T16:19:59.907Z,9.20
2018-09-03T16:22:34.751Z,6.83
2018-09-03T16:25:05.684Z,7.23
2018-09-03T16:27:36.235Z,9.67
2018-09-03T16:30:07.580Z,8.77
2018-09-03T16:32:37.425Z,7.80
2018-09-03T16:35:06.934Z,7.70
2018-09-03T16:37:35.789Z,8.77
2018-09-03T16:40:05.825Z,10.53
2018-09-03T16:42:36.511Z,9.27
2018-09-03T16:45:06.322Z,7.17
2018-09-03T16:47:35.225Z,8.70
2018-09-03T16:50:03.923Z,9.03
2018-09-03T16:52:32.425Z,6.90
2018-09-03T16:55:01.341Z,9.47
2018-09-03T16:57:31.361Z,8.17
2018-09-03T17:00:00.283Z,11.10
2018-09-03T17:02:29.436Z,7.90
2018-09-03T17:04:58.096Z,9.20
2018-09-03T17:07:26.724Z,9.90
2018-09-03T17:09:55.587Z,7.57
2018-09-03T17:12:24.754Z,8.27
2018-09-03T17:14:53.327Z,11.27
2018-09-03T17:17:22.248Z,8.73
2018-09-03T17:19:51.082Z,9.87
2018-09-03T17:22:20.254Z,7.17
2018-09-03T17:24:49.544Z,11.20
2018-09-03T17:27:18.138Z,10.87
2018-09-03T17:29:47.088Z,10.23
2018-09-03T17:32:15.716Z,9.53
2018-09-03T17:34:44.718Z,10.87
2018-09-03T17:37:14.758Z,12.53
2018-09-03T17:39:44.394Z,13.33
2018-09-03T17:42:13.332Z,11.33
2018-09-03T17:44:44.988Z,9.73
2018-09-03T17:47:14.394Z,11.67
2018-09-03T17:49:46.109Z,11.87
2018-09-03T17:52:16.025Z,10.23
2018-09-03T17:54:46.101Z,13.20
2018-09-03T17:57:19.082Z,9.53
2018-09-03T17:59:48.056Z,12.13
2018-09-03T18:02:16.774Z,14.33
2018-09-03T18:04:45.583Z,12.50
2018-09-03T18:07:14.144Z,8.50
2018-09-03T18:09:43.171Z,11.87
2018-09-03T18:12:12.249Z,8.90
2018-09-03T18:14:40.915Z,13.10
2018-09-03T18:17:09.487Z,13.50
2018-09-03T18:19:38.073Z,12.40
2018-09-03T18:22:06.623Z,10.73
2018-09-03T18:24:35.196Z,11.70
2018-09-03T18:27:05.892Z,11.63
2018-09-03T18:29:35.880Z,10.07
2018-09-03T18:32:05.422Z,11.67
2018-09-03T18:34:35.035Z,15.20
2018-09-03T18:37:03.734Z,18.20
2018-09-03T18:39:32.892Z,16.00
2018-09-03T18:42:01.653Z,12.47
2018-09-03T18:44:30.505Z,15.43
2018-09-03T18:46:59.239Z,15.40
2018-09-03T18:49:27.831Z,16.63
2018-09-03T18:51:56.645Z,15.30
2018-09-03T18:54:25.245Z,10.87
2018-09-03T18:56:53.996Z,14.87
2018-09-03T18:59:22.555Z,12.40
2018-09-03T19:01:51.303Z,12.33
2018-09-03T19:04:20.019Z,16.80
2018-09-03T19:06:48.897Z,15.30
2018-09-03T19:09:17.426Z,14.00
2018-09-03T19:11:46.006Z,17.07
2018-09-03T19:14:14.535Z,12.93
2018-09-03T19:16:43.100Z,13.30
2018-09-03T19:19:12.026Z,12.00
2018-09-03T19:21:40.775Z,13.10
2018-09-03T19:24:09.558Z,10.17
2018-09-03T19:26:38.123Z,11.67
2018-09-03T19:29:06.688Z,12.13
2018-09-03T19:31:35.392Z,12.00
2018-09-03T19:34:04.226Z,13.60
2018-09-03T19:36:33.455Z,13.53
2018-09-03T19:39:02.050Z,11.97
2018-09-03T19:41:31.348Z,14.50
2018-09-03T19:44:01.048Z,12.87
2018-09-03T19:46:29.637Z,12.27
2018-09-03T19:48:58.237Z,15.10
2018-09-03T19:51:29.950Z,11.10
2018-09-03T19:53:58.603Z,12.03
2018-09-03T19:56:27.138Z,12.20
2018-09-03T19:58:56.287Z,12.03
2018-09-03T20:01:25.181Z,10.63
2018-09-03T20:03:54.631Z,12.03
2018-09-03T20:06:23.173Z,10.47
2018-09-03T20:08:51.805Z,9.63
2018-09-03T20:11:20.349Z,10.90
2018-09-03T20:13:48.934Z,12.20
2018-09-03T20:16:17.751Z,14.37
2018-09-03T20:18:46.317Z,10.67
2018-09-03T20:21:14.916Z,10.97
2018-09-03T20:23:43.963Z,9.83
2018-09-03T20:26:12.415Z,9.30
2018-09-03T20:28:41.077Z,11.13
2018-09-03T20:31:09.699Z,10.27
2018-09-03T20:33:38.801Z,9.87
2018-09-03T20:36:07.363Z,9.93
2018-09-03T20:38:36.424Z,11.07
2018-09-03T20:41:05.313Z,10.27
2018-09-03T20:43:34.069Z,13.03
2018-09-03T20:46:03.315Z,13.07
2018-09-03T20:48:32.090Z,12.40
2018-09-03T20:51:00.739Z,10.20
2018-09-03T20:53:29.232Z,13.17
2018-09-03T20:55:57.853Z,14.23
2018-09-03T20:58:26.493Z,14.17
2018-09-03T21:00:54.999Z,12.07
2018-09-03T21:03:23.570Z,11.50
2018-09-03T21:05:52.795Z,12.00
2018-09-03T21:08:21.844Z,10.43
2018-09-03T21:10:50.385Z,13.70
2018-09-03T21:13:18.891Z,10.27
2018-09-03T21:15:48.372Z,12.07
2018-09-03T21:18:17.155Z,9.90
2018-09-03T21:20:45.848Z,15.10
2018-09-03T21:23:14.371Z,12.63
2018-09-03T21:25:42.929Z,10.27
2018-09-03T21:28:11.499Z,10.77
2018-09-03T21:30:40.482Z,11.43
2018-09-03T21:33:09.473Z,10.53
2018-09-03T21:35:38.998Z,12.57
2018-09-03T21:38:07.617Z,12.10
2018-09-03T21:40:36.271Z,15.13
2018-09-03T21:43:05.024Z,12.30
2018-09-03T21:45:33.681Z,10.43
2018-09-03T21:48:02.748Z,10.60
2018-09-03T21:50:31.367Z,10.60
2018-09-03T21:53:00.138Z,11.77
2018-09-03T21:55:28.692Z,10.47
2018-09-03T21:57:57.303Z,11.70
2018-09-03T22:00:26.232Z,11.17
2018-09-03T22:02:55.664Z,12.07
2018-09-03T22:05:24.237Z,12.80
2018-09-03T22:07:52.761Z,13.67
2018-09-03T22:10:21.519Z,11.13
2018-09-03T22:12:50.022Z,12.10
2018-09-03T22:15:18.882Z,14.43
2018-09-03T22:17:47.531Z,14.50
2018-09-03T22:20:16.223Z,13.43
2018-09-03T22:22:45.111Z,12.40
2018-09-03T22:25:14.737Z,12.47
2018-09-03T22:27:43.485Z,14.50
2018-09-03T22:30:12.053Z,11.80
2018-09-03T22:32:40.602Z,13.00
2018-09-03T22:35:09.557Z,14.93
2018-09-03T22:37:38.252Z,10.73
2018-09-03T22:40:07.939Z,10.53
2018-09-03T22:42:36.463Z,14.77
2018-09-03T22:45:05.011Z,13.77
2018-09-03T22:47:33.487Z,9.93
2018-09-03T22:50:02.143Z,12.10
2018-09-03T22:52:30.615Z,10.57
2018-09-03T22:54:59.107Z,13.40
2018-09-03T22:57:27.640Z,10.37
2018-09-03T22:59:56.315Z,12.63
2018-09-03T23:02:25.253Z,9.70
2018-09-03T23:04:54.292Z,11.23
2018-09-03T23:07:22.896Z,10.70
2018-09-03T23:09:52.890Z,12.77
2018-09-03T23:12:21.491Z,13.10
2018-09-03T23:14:50.081Z,14.53
2018-09-03T23:17:18.915Z,12.37
2018-09-03T23:19:47.422Z,14.40
2018-09-03T23:22:15.998Z,12.57
2018-09-03T23:24:44.536Z,13.00
2018-09-03T23:27:13.228Z,17.47
2018-09-03T23:29:41.864Z,16.60
2018-09-03T23:32:10.473Z,12.60
2018-09-03T23:34:39.682Z,13.57
2018-09-03T23:37:08.188Z,12.97
2018-09-03T23:39:36.854Z,15.57
2018-09-03T23:42:06.764Z,14.50
2018-09-03T23:44:35.719Z,12.60
2018-09-03T23:47:04.395Z,14.77
2018-09-03T23:49:32.978Z,19.13
2018-09-03T23:52:01.734Z,12.37
2018-09-03T23:54:30.393Z,12.63
2018-09-03T23:56:58.932Z,14.20
2018-09-03T23:59:27.518Z,13.40
